sensor_id;sensor_type;location;lat;lon;timestamp;temperature;humidity
34833;DHT22;55941;50.800;4.342;2023-07-09T00:02:23;25.10;99.90
34833;DHT22;55941;50.800;4.342;2023-07-09T00:04:50;25.10;99.90
34833;DHT22;55941;50.800;4.342;2023-07-09T00:07:28;25.10;99.90
34833;DHT22;55941;50.800;4.342;2023-07-09T00:09:56;25.10;99.90
34833;DHT22;55941;50.800;4.342;2023-07-09T00:12:22;25.10;99.90
34833;DHT22;55941;50.800;4.342;2023-07-09T00:14:48;25.10;99.90
34833;DHT22;55941;50.800;4.342;2023-07-09T00:17:26;25.10;99.90
34833;DHT22;55941;50.800;4.342;2023-07-09T00:19:53;25.00;99.90
34833;DHT22;55941;50.800;4.342;2023-07-09T00:22:19;25.00;99.90
34833;DHT22;55941;50.800;4.342;2023-07-09T00:24:47;25.00;99.90
34833;DHT22;55941;50.800;4.342;2023-07-09T00:27:17;24.90;99.90
34833;DHT22;55941;50.800;4.342;2023-07-09T00:29:44;24.90;99.90
34833;DHT22;55941;50.800;4.342;2023-07-09T00:32:17;25.00;99.90
34833;DHT22;55941;50.800;4.342;2023-07-09T00:34:46;24.90;99.90
34833;DHT22;55941;50.800;4.342;2023-07-09T00:37:18;24.90;99.90
34833;DHT22;55941;50.800;4.342;2023-07-09T00:39:45;24.90;99.90
34833;DHT22;55941;50.800;4.342;2023-07-09T00:42:22;24.80;99.90
34833;DHT22;55941;50.800;4.342;2023-07-09T00:44:53;24.90;99.90
34833;DHT22;55941;50.800;4.342;2023-07-09T00:50:41;24.90;99.90
34833;DHT22;55941;50.800;4.342;2023-07-09T00:53:21;24.90;99.90
34833;DHT22;55941;50.800;4.342;2023-07-09T00:55:54;24.90;99.90
34833;DHT22;55941;50.800;4.342;2023-07-09T00:58:22;24.80;99.90
34833;DHT22;55941;50.800;4.342;2023-07-09T01:00:55;24.80;99.90
34833;DHT22;55941;50.800;4.342;2023-07-09T01:05:57;24.80;99.90
34833;DHT22;55941;50.800;4.342;2023-07-09T01:08:23;24.70;99.90
34833;DHT22;55941;50.800;4.342;2023-07-09T01:10:49;24.80;99.90
34833;DHT22;55941;50.800;4.342;2023-07-09T01:13:16;24.80;99.90
34833;DHT22;55941;50.800;4.342;2023-07-09T01:15:43;24.70;99.90
34833;DHT22;55941;50.800;4.342;2023-07-09T01:18:10;24.70;99.90
34833;DHT22;55941;50.800;4.342;2023-07-09T01:20:38;24.70;99.90
34833;DHT22;55941;50.800;4.342;2023-07-09T01:23:04;24.70;99.90
34833;DHT22;55941;50.800;4.342;2023-07-09T01:25:32;24.80;99.90
34833;DHT22;55941;50.800;4.342;2023-07-09T01:27:58;24.60;99.90
34833;DHT22;55941;50.800;4.342;2023-07-09T01:30:29;24.60;99.90
34833;DHT22;55941;50.800;4.342;2023-07-09T01:33:00;24.50;99.90
34833;DHT22;55941;50.800;4.342;2023-07-09T01:35:28;24.50;99.90
34833;DHT22;55941;50.800;4.342;2023-07-09T01:37:55;24.50;99.90
34833;DHT22;55941;50.800;4.342;2023-07-09T01:40:23;24.50;99.90
34833;DHT22;55941;50.800;4.342;2023-07-09T01:42:50;24.50;99.90
34833;DHT22;55941;50.800;4.342;2023-07-09T01:45:17;24.50;99.90
34833;DHT22;55941;50.800;4.342;2023-07-09T01:47:43;24.40;99.90
34833;DHT22;55941;50.800;4.342;2023-07-09T01:50:10;24.40;99.90
34833;DHT22;55941;50.800;4.342;2023-07-09T01:52:38;24.40;99.90
34833;DHT22;55941;50.800;4.342;2023-07-09T01:55:07;24.50;99.90
34833;DHT22;55941;50.800;4.342;2023-07-09T01:57:33;24.40;99.90
34833;DHT22;55941;50.800;4.342;2023-07-09T02:00:02;24.40;99.90
34833;DHT22;55941;50.800;4.342;2023-07-09T02:02:29;24.40;99.90
34833;DHT22;55941;50.800;4.342;2023-07-09T02:04:56;24.40;99.90
34833;DHT22;55941;50.800;4.342;2023-07-09T02:07:23;24.40;99.90
34833;DHT22;55941;50.800;4.342;2023-07-09T02:09:49;24.40;99.90
34833;DHT22;55941;50.800;4.342;2023-07-09T02:12:16;24.40;99.90
34833;DHT22;55941;50.800;4.342;2023-07-09T02:14:42;24.30;99.90
34833;DHT22;55941;50.800;4.342;2023-07-09T02:17:10;24.40;99.90
34833;DHT22;55941;50.800;4.342;2023-07-09T02:19:36;24.40;99.90
34833;DHT22;55941;50.800;4.342;2023-07-09T02:22:02;24.50;99.90
34833;DHT22;55941;50.800;4.342;2023-07-09T02:24:27;24.50;99.90
34833;DHT22;55941;50.800;4.342;2023-07-09T02:26:57;24.50;99.90
34833;DHT22;55941;50.800;4.342;2023-07-09T02:29:24;24.50;99.90
34833;DHT22;55941;50.800;4.342;2023-07-09T02:31:51;24.50;99.90
34833;DHT22;55941;50.800;4.342;2023-07-09T02:34:18;24.50;99.90
34833;DHT22;55941;50.800;4.342;2023-07-09T02:36:44;24.60;99.90
34833;DHT22;55941;50.800;4.342;2023-07-09T02:39:11;24.60;99.90
34833;DHT22;55941;50.800;4.342;2023-07-09T02:41:38;24.50;99.90
34833;DHT22;55941;50.800;4.342;2023-07-09T02:44:04;24.50;99.90
34833;DHT22;55941;50.800;4.342;2023-07-09T02:46:31;24.30;99.90
34833;DHT22;55941;50.800;4.342;2023-07-09T02:48:57;24.60;99.90
34833;DHT22;55941;50.800;4.342;2023-07-09T02:51:23;24.60;99.90
34833;DHT22;55941;50.800;4.342;2023-07-09T02:53:55;24.50;99.90
34833;DHT22;55941;50.800;4.342;2023-07-09T02:56:21;24.50;99.90
34833;DHT22;55941;50.800;4.342;2023-07-09T02:58:47;24.50;99.90
34833;DHT22;55941;50.800;4.342;2023-07-09T03:01:13;24.50;99.90
34833;DHT22;55941;50.800;4.342;2023-07-09T03:03:39;24.50;99.90
34833;DHT22;55941;50.800;4.342;2023-07-09T03:06:05;24.60;99.90
34833;DHT22;55941;50.800;4.342;2023-07-09T03:08:31;24.60;99.90
34833;DHT22;55941;50.800;4.342;2023-07-09T03:10:57;24.60;99.90
34833;DHT22;55941;50.800;4.342;2023-07-09T03:13:23;24.50;99.90
34833;DHT22;55941;50.800;4.342;2023-07-09T03:15:58;24.50;99.90
34833;DHT22;55941;50.800;4.342;2023-07-09T03:18:24;24.40;99.90
34833;DHT22;55941;50.800;4.342;2023-07-09T03:20:50;24.40;99.90
34833;DHT22;55941;50.800;4.342;2023-07-09T03:23:16;24.30;99.90
34833;DHT22;55941;50.800;4.342;2023-07-09T03:25:43;24.30;99.90
34833;DHT22;55941;50.800;4.342;2023-07-09T03:28:09;24.40;99.90
34833;DHT22;55941;50.800;4.342;2023-07-09T03:30:40;24.60;99.90
34833;DHT22;55941;50.800;4.342;2023-07-09T03:33:06;24.80;99.90
34833;DHT22;55941;50.800;4.342;2023-07-09T03:35:32;24.80;99.90
34833;DHT22;55941;50.800;4.342;2023-07-09T03:37:57;24.60;99.90
34833;DHT22;55941;50.800;4.342;2023-07-09T03:40:23;24.50;99.90
34833;DHT22;55941;50.800;4.342;2023-07-09T03:42:49;24.40;99.90
34833;DHT22;55941;50.800;4.342;2023-07-09T03:45:15;24.30;99.90
34833;DHT22;55941;50.800;4.342;2023-07-09T03:47:40;24.30;99.90
34833;DHT22;55941;50.800;4.342;2023-07-09T03:50:10;24.20;99.90
34833;DHT22;55941;50.800;4.342;2023-07-09T03:52:37;24.20;99.90
34833;DHT22;55941;50.800;4.342;2023-07-09T03:55:04;24.10;99.90
34833;DHT22;55941;50.800;4.342;2023-07-09T03:57:30;24.20;99.90
34833;DHT22;55941;50.800;4.342;2023-07-09T03:59:56;24.10;99.90
34833;DHT22;55941;50.800;4.342;2023-07-09T04:02:22;24.00;99.90
34833;DHT22;55941;50.800;4.342;2023-07-09T04:04:48;23.80;99.90
34833;DHT22;55941;50.800;4.342;2023-07-09T04:07:15;23.80;99.90
34833;DHT22;55941;50.800;4.342;2023-07-09T04:09:41;23.70;99.90
34833;DHT22;55941;50.800;4.342;2023-07-09T04:12:07;23.60;99.90
34833;DHT22;55941;50.800;4.342;2023-07-09T04:14:33;23.70;99.90
34833;DHT22;55941;50.800;4.342;2023-07-09T04:16:59;23.70;99.90
34833;DHT22;55941;50.800;4.342;2023-07-09T04:19:25;23.60;99.90
34833;DHT22;55941;50.800;4.342;2023-07-09T04:21:50;23.70;99.90
34833;DHT22;55941;50.800;4.342;2023-07-09T04:24:17;23.60;99.90
34833;DHT22;55941;50.800;4.342;2023-07-09T04:26:43;23.60;99.90
34833;DHT22;55941;50.800;4.342;2023-07-09T04:29:09;23.60;99.90
34833;DHT22;55941;50.800;4.342;2023-07-09T04:31:35;23.80;99.90
34833;DHT22;55941;50.800;4.342;2023-07-09T04:34:01;23.70;99.90
34833;DHT22;55941;50.800;4.342;2023-07-09T04:36:27;23.60;99.90
34833;DHT22;55941;50.800;4.342;2023-07-09T04:38:53;23.60;99.90
34833;DHT22;55941;50.800;4.342;2023-07-09T04:41:18;23.80;99.90
34833;DHT22;55941;50.800;4.342;2023-07-09T04:43:44;23.80;99.90
34833;DHT22;55941;50.800;4.342;2023-07-09T04:46:10;23.70;99.90
34833;DHT22;55941;50.800;4.342;2023-07-09T04:48:36;23.60;99.90
34833;DHT22;55941;50.800;4.342;2023-07-09T04:51:01;23.70;99.90
34833;DHT22;55941;50.800;4.342;2023-07-09T04:53:27;23.80;99.90
34833;DHT22;55941;50.800;4.342;2023-07-09T04:55:53;23.80;99.90
34833;DHT22;55941;50.800;4.342;2023-07-09T04:58:18;23.80;99.90
34833;DHT22;55941;50.800;4.342;2023-07-09T05:00:45;23.90;99.90
34833;DHT22;55941;50.800;4.342;2023-07-09T05:03:11;23.90;99.90
34833;DHT22;55941;50.800;4.342;2023-07-09T05:05:44;23.90;99.90
34833;DHT22;55941;50.800;4.342;2023-07-09T05:08:10;23.90;99.90
34833;DHT22;55941;50.800;4.342;2023-07-09T05:10:49;24.00;99.90
34833;DHT22;55941;50.800;4.342;2023-07-09T05:13:16;24.10;99.90
34833;DHT22;55941;50.800;4.342;2023-07-09T05:15:46;24.20;99.90
34833;DHT22;55941;50.800;4.342;2023-07-09T05:18:13;24.40;99.90
34833;DHT22;55941;50.800;4.342;2023-07-09T05:20:40;24.60;99.90
34833;DHT22;55941;50.800;4.342;2023-07-09T05:23:07;24.80;99.90
34833;DHT22;55941;50.800;4.342;2023-07-09T05:25:33;24.90;99.90
34833;DHT22;55941;50.800;4.342;2023-07-09T05:27:58;25.00;99.90
34833;DHT22;55941;50.800;4.342;2023-07-09T05:30:25;25.10;99.90
34833;DHT22;55941;50.800;4.342;2023-07-09T05:32:51;25.20;99.90
34833;DHT22;55941;50.800;4.342;2023-07-09T05:35:19;25.30;99.90
34833;DHT22;55941;50.800;4.342;2023-07-09T05:37:44;25.40;99.90
34833;DHT22;55941;50.800;4.342;2023-07-09T05:40:10;25.50;99.90
34833;DHT22;55941;50.800;4.342;2023-07-09T05:42:36;25.50;99.90
34833;DHT22;55941;50.800;4.342;2023-07-09T05:45:03;25.40;99.90
34833;DHT22;55941;50.800;4.342;2023-07-09T05:47:29;25.30;99.90
34833;DHT22;55941;50.800;4.342;2023-07-09T05:49:55;25.00;99.90
34833;DHT22;55941;50.800;4.342;2023-07-09T05:52:22;24.70;99.90
34833;DHT22;55941;50.800;4.342;2023-07-09T05:54:51;24.50;99.90
34833;DHT22;55941;50.800;4.342;2023-07-09T05:57:18;24.30;99.90
34833;DHT22;55941;50.800;4.342;2023-07-09T05:59:44;24.10;99.90
34833;DHT22;55941;50.800;4.342;2023-07-09T06:02:15;23.90;99.90
34833;DHT22;55941;50.800;4.342;2023-07-09T06:04:42;23.90;99.90
34833;DHT22;55941;50.800;4.342;2023-07-09T06:07:08;23.90;99.90
34833;DHT22;55941;50.800;4.342;2023-07-09T06:09:35;24.00;99.90
34833;DHT22;55941;50.800;4.342;2023-07-09T06:12:03;24.00;99.90
34833;DHT22;55941;50.800;4.342;2023-07-09T06:14:30;24.00;99.90
34833;DHT22;55941;50.800;4.342;2023-07-09T06:16:57;24.00;99.90
34833;DHT22;55941;50.800;4.342;2023-07-09T06:19:23;23.70;99.90
34833;DHT22;55941;50.800;4.342;2023-07-09T06:21:49;23.50;99.90
34833;DHT22;55941;50.800;4.342;2023-07-09T06:24:14;23.50;99.90
34833;DHT22;55941;50.800;4.342;2023-07-09T06:26:40;23.40;99.90
34833;DHT22;55941;50.800;4.342;2023-07-09T06:29:06;23.30;99.90
34833;DHT22;55941;50.800;4.342;2023-07-09T06:31:32;23.30;99.90
34833;DHT22;55941;50.800;4.342;2023-07-09T06:33:58;23.10;99.90
34833;DHT22;55941;50.800;4.342;2023-07-09T06:36:24;23.10;99.90
34833;DHT22;55941;50.800;4.342;2023-07-09T06:38:49;23.10;99.90
34833;DHT22;55941;50.800;4.342;2023-07-09T06:41:16;23.20;99.90
34833;DHT22;55941;50.800;4.342;2023-07-09T06:43:42;23.30;99.90
34833;DHT22;55941;50.800;4.342;2023-07-09T06:46:11;23.40;99.90
34833;DHT22;55941;50.800;4.342;2023-07-09T06:48:37;23.50;99.90
34833;DHT22;55941;50.800;4.342;2023-07-09T06:51:03;23.60;99.90
34833;DHT22;55941;50.800;4.342;2023-07-09T06:53:29;23.80;99.90
34833;DHT22;55941;50.800;4.342;2023-07-09T06:55:56;24.00;99.90
34833;DHT22;55941;50.800;4.342;2023-07-09T06:58:25;24.10;99.90
34833;DHT22;55941;50.800;4.342;2023-07-09T07:00:54;24.10;99.90
34833;DHT22;55941;50.800;4.342;2023-07-09T07:03:22;24.00;99.90
34833;DHT22;55941;50.800;4.342;2023-07-09T07:05:53;24.00;99.90
34833;DHT22;55941;50.800;4.342;2023-07-09T07:08:20;24.10;99.90
34833;DHT22;55941;50.800;4.342;2023-07-09T07:10:49;24.20;99.90
34833;DHT22;55941;50.800;4.342;2023-07-09T07:13:15;24.30;99.90
34833;DHT22;55941;50.800;4.342;2023-07-09T07:15:41;24.20;99.90
34833;DHT22;55941;50.800;4.342;2023-07-09T07:18:08;24.30;99.90
34833;DHT22;55941;50.800;4.342;2023-07-09T07:20:34;24.30;99.90
34833;DHT22;55941;50.800;4.342;2023-07-09T07:23:00;24.40;99.90
34833;DHT22;55941;50.800;4.342;2023-07-09T07:25:25;24.30;99.90
34833;DHT22;55941;50.800;4.342;2023-07-09T07:27:51;24.50;99.90
34833;DHT22;55941;50.800;4.342;2023-07-09T07:30:17;24.50;99.90
34833;DHT22;55941;50.800;4.342;2023-07-09T07:32:47;24.70;99.90
34833;DHT22;55941;50.800;4.342;2023-07-09T07:35:14;24.80;99.90
34833;DHT22;55941;50.800;4.342;2023-07-09T07:37:41;24.80;99.90
34833;DHT22;55941;50.800;4.342;2023-07-09T07:40:07;24.60;99.90
34833;DHT22;55941;50.800;4.342;2023-07-09T07:42:33;24.60;99.90
34833;DHT22;55941;50.800;4.342;2023-07-09T07:45:00;24.60;99.90
34833;DHT22;55941;50.800;4.342;2023-07-09T07:47:26;24.70;99.90
34833;DHT22;55941;50.800;4.342;2023-07-09T07:49:56;24.90;99.90
34833;DHT22;55941;50.800;4.342;2023-07-09T07:52:22;24.90;99.90
34833;DHT22;55941;50.800;4.342;2023-07-09T07:54:48;25.10;99.90
34833;DHT22;55941;50.800;4.342;2023-07-09T07:57:14;25.10;99.90
34833;DHT22;55941;50.800;4.342;2023-07-09T07:59:39;25.10;99.90
34833;DHT22;55941;50.800;4.342;2023-07-09T08:02:09;25.00;99.90
34833;DHT22;55941;50.800;4.342;2023-07-09T08:04:35;25.00;99.90
34833;DHT22;55941;50.800;4.342;2023-07-09T08:07:01;25.10;99.90
34833;DHT22;55941;50.800;4.342;2023-07-09T08:09:27;25.20;99.90
34833;DHT22;55941;50.800;4.342;2023-07-09T08:11:53;25.30;99.90
34833;DHT22;55941;50.800;4.342;2023-07-09T08:14:18;25.50;99.90
34833;DHT22;55941;50.800;4.342;2023-07-09T08:16:44;25.80;99.90
34833;DHT22;55941;50.800;4.342;2023-07-09T08:19:10;25.90;99.90
34833;DHT22;55941;50.800;4.342;2023-07-09T08:21:36;26.10;99.90
34833;DHT22;55941;50.800;4.342;2023-07-09T08:24:02;26.00;99.90
34833;DHT22;55941;50.800;4.342;2023-07-09T08:26:28;26.00;99.90
34833;DHT22;55941;50.800;4.342;2023-07-09T08:28:54;26.00;99.90
34833;DHT22;55941;50.800;4.342;2023-07-09T08:31:20;26.20;99.90
34833;DHT22;55941;50.800;4.342;2023-07-09T08:33:46;26.10;99.90
34833;DHT22;55941;50.800;4.342;2023-07-09T08:36:11;26.00;99.90
34833;DHT22;55941;50.800;4.342;2023-07-09T08:38:37;26.00;99.90
34833;DHT22;55941;50.800;4.342;2023-07-09T08:41:15;26.10;99.90
34833;DHT22;55941;50.800;4.342;2023-07-09T08:46:27;26.60;99.90
34833;DHT22;55941;50.800;4.342;2023-07-09T08:48:57;26.60;99.90
34833;DHT22;55941;50.800;4.342;2023-07-09T08:53:58;26.90;99.90
34833;DHT22;55941;50.800;4.342;2023-07-09T08:56:31;27.00;99.90
34833;DHT22;55941;50.800;4.342;2023-07-09T08:59:00;27.10;99.90
34833;DHT22;55941;50.800;4.342;2023-07-09T09:01:31;27.20;99.90
34833;DHT22;55941;50.800;4.342;2023-07-09T09:04:08;27.20;99.90
34833;DHT22;55941;50.800;4.342;2023-07-09T09:06:40;27.20;99.90
34833;DHT22;55941;50.800;4.342;2023-07-09T09:12:21;27.60;99.90
34833;DHT22;55941;50.800;4.342;2023-07-09T09:15:17;27.80;99.70
34833;DHT22;55941;50.800;4.342;2023-07-09T09:17:43;27.70;99.60
34833;DHT22;55941;50.800;4.342;2023-07-09T09:20:16;27.80;99.30
34833;DHT22;55941;50.800;4.342;2023-07-09T09:22:47;27.90;98.90
34833;DHT22;55941;50.800;4.342;2023-07-09T09:25:25;27.90;99.00
34833;DHT22;55941;50.800;4.342;2023-07-09T09:27:52;28.10;98.80
34833;DHT22;55941;50.800;4.342;2023-07-09T09:30:22;28.10;98.90
34833;DHT22;55941;50.800;4.342;2023-07-09T09:32:57;28.20;99.00
34833;DHT22;55941;50.800;4.342;2023-07-09T09:35:32;28.40;98.60
34833;DHT22;55941;50.800;4.342;2023-07-09T09:37:59;28.50;98.50
34833;DHT22;55941;50.800;4.342;2023-07-09T09:40:29;28.50;98.70
34833;DHT22;55941;50.800;4.342;2023-07-09T09:42:58;28.40;99.10
34833;DHT22;55941;50.800;4.342;2023-07-09T09:45:38;28.50;99.00
34833;DHT22;55941;50.800;4.342;2023-07-09T09:48:27;28.30;99.10
34833;DHT22;55941;50.800;4.342;2023-07-09T09:50:53;28.40;99.40
34833;DHT22;55941;50.800;4.342;2023-07-09T09:53:24;28.30;99.20
34833;DHT22;55941;50.800;4.342;2023-07-09T09:55:53;28.50;99.30
34833;DHT22;55941;50.800;4.342;2023-07-09T09:58:24;28.40;99.50
34833;DHT22;55941;50.800;4.342;2023-07-09T10:00:52;28.50;99.50
34833;DHT22;55941;50.800;4.342;2023-07-09T10:03:18;28.60;99.60
34833;DHT22;55941;50.800;4.342;2023-07-09T10:05:55;28.40;99.60
34833;DHT22;55941;50.800;4.342;2023-07-09T10:11:05;28.50;99.90
34833;DHT22;55941;50.800;4.342;2023-07-09T10:13:36;28.60;99.90
34833;DHT22;55941;50.800;4.342;2023-07-09T10:19:59;29.00;99.40
34833;DHT22;55941;50.800;4.342;2023-07-09T10:30:42;29.20;98.90
34833;DHT22;55941;50.800;4.342;2023-07-09T10:33:13;29.10;99.20
34833;DHT22;55941;50.800;4.342;2023-07-09T10:36:01;29.10;99.10
34833;DHT22;55941;50.800;4.342;2023-07-09T10:38:34;29.00;99.20
34833;DHT22;55941;50.800;4.342;2023-07-09T10:41:04;28.90;99.50
34833;DHT22;55941;50.800;4.342;2023-07-09T10:43:41;28.70;99.80
34833;DHT22;55941;50.800;4.342;2023-07-09T10:46:21;28.70;99.80
34833;DHT22;55941;50.800;4.342;2023-07-09T10:48:50;28.80;99.60
34833;DHT22;55941;50.800;4.342;2023-07-09T10:51:28;28.70;99.40
34833;DHT22;55941;50.800;4.342;2023-07-09T10:54:00;28.30;99.90
34833;DHT22;55941;50.800;4.342;2023-07-09T10:56:32;28.20;99.90
34833;DHT22;55941;50.800;4.342;2023-07-09T10:59:16;28.20;99.90
34833;DHT22;55941;50.800;4.342;2023-07-09T11:01:49;28.20;99.70
34833;DHT22;55941;50.800;4.342;2023-07-09T11:04:44;28.10;99.90
34833;DHT22;55941;50.800;4.342;2023-07-09T11:07:15;28.10;99.80
34833;DHT22;55941;50.800;4.342;2023-07-09T11:09:45;27.90;99.90
34833;DHT22;55941;50.800;4.342;2023-07-09T11:12:20;28.00;99.90
34833;DHT22;55941;50.800;4.342;2023-07-09T11:14:54;28.10;99.70
34833;DHT22;55941;50.800;4.342;2023-07-09T11:17:21;28.00;99.60
34833;DHT22;55941;50.800;4.342;2023-07-09T11:19:53;27.80;99.80
34833;DHT22;55941;50.800;4.342;2023-07-09T11:22:51;27.60;99.80
34833;DHT22;55941;50.800;4.342;2023-07-09T11:25:28;27.50;99.90
34833;DHT22;55941;50.800;4.342;2023-07-09T11:28:03;27.40;99.90
34833;DHT22;55941;50.800;4.342;2023-07-09T11:30:29;27.30;99.90
34833;DHT22;55941;50.800;4.342;2023-07-09T11:33:01;27.20;99.90
34833;DHT22;55941;50.800;4.342;2023-07-09T11:35:46;27.20;99.90
34833;DHT22;55941;50.800;4.342;2023-07-09T11:38:18;27.50;99.90
34833;DHT22;55941;50.800;4.342;2023-07-09T11:40:53;27.30;99.90
34833;DHT22;55941;50.800;4.342;2023-07-09T11:43:35;27.30;99.90
34833;DHT22;55941;50.800;4.342;2023-07-09T11:46:11;27.40;99.90
34833;DHT22;55941;50.800;4.342;2023-07-09T11:48:40;27.40;99.90
34833;DHT22;55941;50.800;4.342;2023-07-09T11:51:20;27.20;99.90
34833;DHT22;55941;50.800;4.342;2023-07-09T11:53:54;27.30;99.90
34833;DHT22;55941;50.800;4.342;2023-07-09T11:56:22;27.20;99.90
34833;DHT22;55941;50.800;4.342;2023-07-09T11:58:58;27.00;99.90
34833;DHT22;55941;50.800;4.342;2023-07-09T12:01:43;27.10;99.90
34833;DHT22;55941;50.800;4.342;2023-07-09T12:04:14;27.20;99.90
34833;DHT22;55941;50.800;4.342;2023-07-09T12:06:42;27.00;99.90
34833;DHT22;55941;50.800;4.342;2023-07-09T12:09:19;26.80;99.90
34833;DHT22;55941;50.800;4.342;2023-07-09T12:11:48;26.80;99.90
34833;DHT22;55941;50.800;4.342;2023-07-09T12:14:20;26.60;99.90
34833;DHT22;55941;50.800;4.342;2023-07-09T12:16:48;26.30;99.90
34833;DHT22;55941;50.800;4.342;2023-07-09T12:19:20;26.00;99.90
34833;DHT22;55941;50.800;4.342;2023-07-09T12:21:49;25.80;99.90
34833;DHT22;55941;50.800;4.342;2023-07-09T12:24:35;25.50;99.90
34833;DHT22;55941;50.800;4.342;2023-07-09T12:27:03;25.30;99.90
34833;DHT22;55941;50.800;4.342;2023-07-09T12:29:42;24.60;99.90
34833;DHT22;55941;50.800;4.342;2023-07-09T12:32:13;24.20;99.90
34833;DHT22;55941;50.800;4.342;2023-07-09T12:34:40;23.70;99.90
34833;DHT22;55941;50.800;4.342;2023-07-09T12:37:13;23.50;99.90
34833;DHT22;55941;50.800;4.342;2023-07-09T12:39:39;23.20;99.90
34833;DHT22;55941;50.800;4.342;2023-07-09T12:42:09;23.10;99.90
34833;DHT22;55941;50.800;4.342;2023-07-09T12:44:39;23.10;99.90
34833;DHT22;55941;50.800;4.342;2023-07-09T12:47:05;22.90;99.90
34833;DHT22;55941;50.800;4.342;2023-07-09T12:49:39;22.90;99.90
34833;DHT22;55941;50.800;4.342;2023-07-09T12:52:14;22.90;99.90
34833;DHT22;55941;50.800;4.342;2023-07-09T12:54:40;23.00;99.90
34833;DHT22;55941;50.800;4.342;2023-07-09T12:57:14;23.10;99.90
34833;DHT22;55941;50.800;4.342;2023-07-09T12:59:44;23.10;99.90
34833;DHT22;55941;50.800;4.342;2023-07-09T13:02:20;23.20;99.90
34833;DHT22;55941;50.800;4.342;2023-07-09T13:04:47;23.30;99.90
34833;DHT22;55941;50.800;4.342;2023-07-09T13:07:26;23.40;99.90
34833;DHT22;55941;50.800;4.342;2023-07-09T13:09:56;23.60;99.90
34833;DHT22;55941;50.800;4.342;2023-07-09T13:12:30;23.90;99.90
34833;DHT22;55941;50.800;4.342;2023-07-09T13:14:57;24.00;99.90
34833;DHT22;55941;50.800;4.342;2023-07-09T13:17:23;24.10;99.90
34833;DHT22;55941;50.800;4.342;2023-07-09T13:19:52;24.10;99.90
34833;DHT22;55941;50.800;4.342;2023-07-09T13:22:21;24.10;99.90
34833;DHT22;55941;50.800;4.342;2023-07-09T13:24:47;24.20;99.90
34833;DHT22;55941;50.800;4.342;2023-07-09T13:27:13;24.40;99.90
34833;DHT22;55941;50.800;4.342;2023-07-09T13:29:40;24.20;99.90
34833;DHT22;55941;50.800;4.342;2023-07-09T13:32:11;24.30;99.90
34833;DHT22;55941;50.800;4.342;2023-07-09T13:34:38;24.20;99.90
34833;DHT22;55941;50.800;4.342;2023-07-09T13:37:05;24.20;99.90
34833;DHT22;55941;50.800;4.342;2023-07-09T13:39:31;24.30;99.90
34833;DHT22;55941;50.800;4.342;2023-07-09T13:41:57;24.40;99.90
34833;DHT22;55941;50.800;4.342;2023-07-09T13:44:26;24.30;99.90
34833;DHT22;55941;50.800;4.342;2023-07-09T13:46:53;24.40;99.90
34833;DHT22;55941;50.800;4.342;2023-07-09T13:49:21;24.40;99.90
34833;DHT22;55941;50.800;4.342;2023-07-09T13:51:50;24.60;99.90
34833;DHT22;55941;50.800;4.342;2023-07-09T13:54:29;24.70;99.90
34833;DHT22;55941;50.800;4.342;2023-07-09T13:57:05;25.00;99.90
34833;DHT22;55941;50.800;4.342;2023-07-09T13:59:31;25.10;99.90
34833;DHT22;55941;50.800;4.342;2023-07-09T14:01:58;25.40;99.90
34833;DHT22;55941;50.800;4.342;2023-07-09T14:04:26;25.70;99.90
34833;DHT22;55941;50.800;4.342;2023-07-09T14:06:53;26.60;99.90
34833;DHT22;55941;50.800;4.342;2023-07-09T14:09:19;27.70;99.90
34833;DHT22;55941;50.800;4.342;2023-07-09T14:11:49;28.40;99.90
34833;DHT22;55941;50.800;4.342;2023-07-09T14:14:29;29.20;99.90
34833;DHT22;55941;50.800;4.342;2023-07-09T14:16:56;29.80;99.90
34833;DHT22;55941;50.800;4.342;2023-07-09T14:19:23;30.40;99.90
34833;DHT22;55941;50.800;4.342;2023-07-09T14:21:50;30.40;99.90
34833;DHT22;55941;50.800;4.342;2023-07-09T14:24:23;30.70;99.90
34833;DHT22;55941;50.800;4.342;2023-07-09T14:26:50;31.30;99.90
34833;DHT22;55941;50.800;4.342;2023-07-09T14:29:16;32.00;99.90
34833;DHT22;55941;50.800;4.342;2023-07-09T14:31:44;32.60;99.90
34833;DHT22;55941;50.800;4.342;2023-07-09T14:34:21;33.10;99.90
34833;DHT22;55941;50.800;4.342;2023-07-09T14:36:48;33.00;99.90
34833;DHT22;55941;50.800;4.342;2023-07-09T14:39:15;32.80;99.90
34833;DHT22;55941;50.800;4.342;2023-07-09T14:41:41;33.00;99.90
34833;DHT22;55941;50.800;4.342;2023-07-09T14:44:28;33.10;99.90
34833;DHT22;55941;50.800;4.342;2023-07-09T14:46:56;33.30;99.60
34833;DHT22;55941;50.800;4.342;2023-07-09T14:49:23;33.80;99.90
34833;DHT22;55941;50.800;4.342;2023-07-09T14:51:49;34.20;97.70
34833;DHT22;55941;50.800;4.342;2023-07-09T14:54:27;34.40;96.30
34833;DHT22;55941;50.800;4.342;2023-07-09T14:56:54;34.50;95.80
34833;DHT22;55941;50.800;4.342;2023-07-09T14:59:20;34.30;95.90
34833;DHT22;55941;50.800;4.342;2023-07-09T15:01:47;34.40;96.40
34833;DHT22;55941;50.800;4.342;2023-07-09T15:04:25;34.50;95.80
34833;DHT22;55941;50.800;4.342;2023-07-09T15:06:54;34.50;96.10
34833;DHT22;55941;50.800;4.342;2023-07-09T15:09:22;34.40;94.10
34833;DHT22;55941;50.800;4.342;2023-07-09T15:11:51;34.50;94.90
34833;DHT22;55941;50.800;4.342;2023-07-09T15:14:18;34.70;94.00
34833;DHT22;55941;50.800;4.342;2023-07-09T15:16:45;34.60;93.30
34833;DHT22;55941;50.800;4.342;2023-07-09T15:19:12;34.40;93.40
34833;DHT22;55941;50.800;4.342;2023-07-09T15:21:38;34.90;93.70
34833;DHT22;55941;50.800;4.342;2023-07-09T15:24:05;34.50;93.10
34833;DHT22;55941;50.800;4.342;2023-07-09T15:26:31;34.50;92.80
34833;DHT22;55941;50.800;4.342;2023-07-09T15:28:57;34.90;92.30
34833;DHT22;55941;50.800;4.342;2023-07-09T15:31:23;34.90;92.00
34833;DHT22;55941;50.800;4.342;2023-07-09T15:33:49;34.90;92.30
34833;DHT22;55941;50.800;4.342;2023-07-09T15:36:14;35.00;91.80
34833;DHT22;55941;50.800;4.342;2023-07-09T15:38:41;34.70;92.00
34833;DHT22;55941;50.800;4.342;2023-07-09T15:41:14;34.40;92.40
34833;DHT22;55941;50.800;4.342;2023-07-09T15:43:43;34.40;92.60
34833;DHT22;55941;50.800;4.342;2023-07-09T15:46:18;34.30;92.90
34833;DHT22;55941;50.800;4.342;2023-07-09T15:48:45;34.20;92.90
34833;DHT22;55941;50.800;4.342;2023-07-09T15:51:11;34.20;93.70
34833;DHT22;55941;50.800;4.342;2023-07-09T15:53:37;34.40;93.40
34833;DHT22;55941;50.800;4.342;2023-07-09T15:56:11;34.60;93.10
34833;DHT22;55941;50.800;4.342;2023-07-09T15:58:40;35.30;92.70
34833;DHT22;55941;50.800;4.342;2023-07-09T16:01:10;35.80;91.90
34833;DHT22;55941;50.800;4.342;2023-07-09T16:03:36;35.60;91.80
34833;DHT22;55941;50.800;4.342;2023-07-09T16:06:02;35.20;91.90
34833;DHT22;55941;50.800;4.342;2023-07-09T16:08:27;34.70;92.20
34833;DHT22;55941;50.800;4.342;2023-07-09T16:10:53;33.90;93.30